Time;durP1;ratioP1;P1;durP2;ratioP2;P2;SDS_P1;SDS_P2;PMS_P1;PMS_P2;Temp;Humidity;BMP_temperature;BMP_pressure;BME280_temperature;BME280_humidity;BME280_pressure;Samples;Min_cycle;Max_cycle;Signal;HPM_P1;HPM_P2
2021/06/10 00:00:14;;;;;;;3.30;2.40;;;;;;;17.52;82.65;101421.47;5055103;28;20465;-68
2021/06/10 00:02:40;;;;;;;13.20;1.70;;;;;;;17.49;82.94;101422.16;5055125;28;20446;-68
2021/06/10 00:05:10;;;;;;;2.33;1.97;;;;;;;17.40;82.84;101417.50;5054944;28;20454;-69
2021/06/10 00:07:36;;;;;;;2.80;1.93;;;;;;;17.43;82.94;101412.47;5054999;28;20442;-68
2021/06/10 00:10:04;;;;;;;2.27;1.40;;;;;;;17.33;83.60;101408.97;5055068;28;20438;-68
2021/06/10 00:12:30;;;;;;;2.70;1.60;;;;;;;17.23;83.70;101411.25;5054932;28;20451;-68
2021/06/10 00:14:57;;;;;;;2.17;1.73;;;;;;;17.23;83.46;101416.72;5054601;28;20482;-68
2021/06/10 00:17:23;;;;;;;6.53;2.13;;;;;;;17.34;82.59;101410.56;5054824;28;20446;-68
2021/06/10 00:19:49;;;;;;;3.27;1.73;;;;;;;17.36;82.61;101411.06;5054783;28;20492;-68
2021/06/10 00:22:16;;;;;;;3.30;2.00;;;;;;;17.38;82.71;101408.78;5054721;28;20449;-68
2021/06/10 00:24:42;;;;;;;2.57;1.97;;;;;;;17.38;82.28;101408.78;5054276;28;21009;-69
2021/06/10 00:27:08;;;;;;;1.97;1.83;;;;;;;17.40;82.25;101417.50;5054617;28;20533;-68
2021/06/10 00:29:34;;;;;;;4.53;1.80;;;;;;;17.40;81.63;101414.75;5054691;28;20442;-68
2021/06/10 00:32:00;;;;;;;2.83;2.27;;;;;;;17.37;81.98;101407.19;5054420;28;20461;-69
2021/06/10 00:34:27;;;;;;;2.87;2.00;;;;;;;17.36;82.32;101405.59;5054129;28;20481;-68
2021/06/10 00:36:53;;;;;;;1.93;1.40;;;;;;;17.22;82.38;101410.44;5054434;28;20438;-68
2021/06/10 00:39:20;;;;;;;2.13;1.40;;;;;;;17.27;82.08;101407.53;5054277;28;20446;-68
2021/06/10 00:41:46;;;;;;;2.00;1.70;;;;;;;17.26;82.73;101413.31;5054275;28;20434;-69
2021/06/10 00:44:12;;;;;;;4.10;2.10;;;;;;;17.23;82.87;101409.31;5054023;28;20504;-68
2021/06/10 00:46:38;;;;;;;1.27;1.13;;;;;;;17.19;83.13;101411.09;5054200;28;20930;-68
2021/06/10 00:49:04;;;;;;;3.40;2.30;;;;;;;17.22;82.89;101407.72;5054144;28;20438;-68
2021/06/10 00:51:30;;;;;;;1.60;1.40;;;;;;;17.19;83.46;101405.63;5053759;28;20445;-68
2021/06/10 00:53:58;;;;;;;2.30;1.93;;;;;;;17.25;83.25;101404.31;5053951;28;20486;-69
2021/06/10 00:56:26;;;;;;;2.83;1.87;;;;;;;17.26;83.16;101407.84;5053652;28;20881;-68
2021/06/10 00:58:53;;;;;;;3.43;1.87;;;;;;;17.24;83.10;101402.72;5054034;28;20439;-68
2021/06/10 01:01:20;;;;;;;2.70;1.70;;;;;;;17.14;83.25;101405.78;5053868;28;20454;-68
2021/06/10 01:03:46;;;;;;;2.20;2.00;;;;;;;17.08;83.13;101415.28;5053622;28;21018;-69
2021/06/10 01:06:22;;;;;;;3.00;2.20;;;;;;;17.09;83.64;101408.72;5054020;28;20557;-68
2021/06/10 01:08:55;;;;;;;2.93;2.47;;;;;;;17.12;83.16;101406.09;5053866;28;20421;-68
2021/06/10 01:11:26;;;;;;;1.80;1.57;;;;;;;17.12;83.84;101402.56;5053809;28;20430;-68
2021/06/10 01:14:03;;;;;;;3.13;1.70;;;;;;;17.07;84.09;101400.00;5053781;28;20461;-68
2021/06/10 01:16:33;;;;;;;2.07;1.50;;;;;;;17.11;83.70;101407.25;5053312;28;20975;-68
2021/06/10 01:19:03;;;;;;;1.77;1.43;;;;;;;17.09;84.14;101405.97;5053737;28;20495;-68
2021/06/10 01:21:29;;;;;;;2.00;1.43;;;;;;;17.11;83.79;101404.50;5053665;28;20445;-69
2021/06/10 01:24:12;;;;;;;1.93;1.37;;;;;;;17.17;83.74;101402.38;5053295;28;20442;-68
2021/06/10 01:26:45;;;;;;;2.90;1.77;;;;;;;17.11;83.97;101401.75;5053296;28;20930;-68
2021/06/10 01:29:16;;;;;;;1.97;1.77;;;;;;;17.22;84.03;101399.50;5053282;28;20423;-67
2021/06/10 01:31:42;;;;;;;2.27;2.00;;;;;;;17.27;83.51;101402.06;5053556;28;20427;-66
2021/06/10 01:34:10;;;;;;;2.10;1.50;;;;;;;17.26;84.02;101399.63;5052918;28;20485;-65
2021/06/10 01:36:41;;;;;;;2.10;1.47;;;;;;;17.30;83.84;101395.09;5053137;28;20469;-67
2021/06/10 01:39:10;;;;;;;2.30;2.10;;;;;;;17.36;83.71;101394.63;5053537;28;20426;-68
2021/06/10 01:41:38;;;;;;;2.90;1.50;;;;;;;17.35;83.88;101387.53;5053263;28;20442;-67
2021/06/10 01:44:06;;;;;;;2.30;2.10;;;;;;;17.33;83.91;101383.50;5053160;28;20480;-67
2021/06/10 01:46:34;;;;;;;1.70;1.47;;;;;;;17.26;84.57;101384.00;5053110;28;20470;-67
2021/06/10 01:49:01;;;;;;;1.70;1.60;;;;;;;17.23;84.99;101381.13;5053229;28;20441;-67
2021/06/10 01:51:30;;;;;;;2.13;1.50;;;;;;;17.22;84.81;101384.97;5053242;28;20442;-68
2021/06/10 01:54:02;;;;;;;4.50;2.00;;;;;;;17.27;84.51;101376.63;5053130;28;20901;-67
2021/06/10 01:56:29;;;;;;;2.60;1.90;;;;;;;17.29;84.52;101386.09;5052848;28;21001;-67
2021/06/10 01:58:56;;;;;;;1.87;1.50;;;;;;;17.19;85.46;101378.25;5052897;28;20443;-67
2021/06/10 02:01:24;;;;;;;3.27;1.60;;;;;;;17.25;84.76;101371.44;5053107;28;20434;-67
2021/06/10 02:03:54;;;;;;;2.50;2.10;;;;;;;17.29;84.71;101377.06;5053055;28;20461;-67
2021/06/10 02:06:20;;;;;;;3.13;1.80;;;;;;;17.32;84.99;101370.97;5053004;28;20528;-67
2021/06/10 02:08:48;;;;;;;2.10;1.73;;;;;;;17.30;84.76;101368.53;5053003;28;20487;-68
2021/06/10 02:11:15;;;;;;;1.53;1.00;;;;;;;17.28;85.11;101370.81;5052987;28;20437;-67
2021/06/10 02:13:43;;;;;;;2.10;1.90;;;;;;;17.27;85.11;101374.69;5052858;28;20434;-67
2021/06/10 02:16:10;;;;;;;2.40;1.80;;;;;;;17.28;84.99;101373.53;5052968;28;20454;-67
2021/06/10 02:18:38;;;;;;;1.60;1.30;;;;;;;17.21;85.38;101378.69;5052286;28;20454;-67
2021/06/10 02:21:08;;;;;;;2.93;1.80;;;;;;;17.32;84.84;101381.91;5053017;28;20439;-67
2021/06/10 02:23:35;;;;;;;3.10;1.90;;;;;;;17.35;84.43;101375.75;5052842;28;20449;-67
2021/06/10 02:26:02;;;;;;;2.10;1.87;;;;;;;17.43;84.69;101382.34;5052870;28;20469;-67
2021/06/10 02:28:27;;;;;;;1.73;1.60;;;;;;;17.48;84.84;101363.78;5052821;28;20450;-67
2021/06/10 02:30:54;;;;;;;6.43;2.07;;;;;;;17.49;84.69;101361.88;5052798;28;20450;-67
2021/06/10 02:33:20;;;;;;;3.07;1.70;;;;;;;17.51;85.12;101354.13;5052792;28;20443;-68
2021/06/10 02:35:47;;;;;;;2.00;1.57;;;;;;;17.55;84.92;101357.81;5070142;22;20560;-67
2021/06/10 02:38:17;;;;;;;2.20;1.80;;;;;;;17.55;84.72;101355.88;5032787;28;20435;-68
2021/06/10 02:40:47;;;;;;;2.40;1.73;;;;;;;17.55;84.25;101355.88;5032693;28;20443;-68
2021/06/10 02:43:13;;;;;;;2.13;1.90;;;;;;;17.54;84.62;101345.25;5032717;28;20465;-68
2021/06/10 02:45:41;;;;;;;3.60;1.57;;;;;;;17.52;84.16;101353.78;5032654;28;20463;-68
2021/06/10 02:48:08;;;;;;;3.07;2.47;;;;;;;17.40;84.04;101362.72;5036131;28;20840;-69
2021/06/10 02:50:38;;;;;;;1.90;1.53;;;;;;;17.33;83.61;101378.03;5036330;28;20447;-69
2021/06/10 02:53:05;;;;;;;2.47;1.57;;;;;;;17.38;83.18;101370.44;5036655;28;20435;-68
2021/06/10 02:55:36;;;;;;;2.53;2.13;;;;;;;17.38;83.64;101381.38;5036064;28;20556;-68
2021/06/10 02:58:02;;;;;;;3.07;1.83;;;;;;;17.37;83.01;101373.50;5036327;28;20473;-68
2021/06/10 03:00:30;;;;;;;3.00;2.80;;;;;;;17.31;83.50;101366.59;5036200;28;20443;-68
2021/06/10 03:02:57;;;;;;;2.10;1.50;;;;;;;17.30;83.01;101368.53;5036185;28;20497;-68
2021/06/10 03:05:25;;;;;;;2.03;1.37;;;;;;;17.31;82.42;101364.69;5036065;28;20463;-68
2021/06/10 03:07:52;;;;;;;2.40;2.00;;;;;;;17.37;81.67;101363.34;5036319;28;20470;-68
2021/06/10 03:10:22;;;;;;;2.90;1.63;;;;;;;17.37;81.02;101370.78;5036401;28;20787;-68
2021/06/10 03:12:50;;;;;;;2.83;1.47;;;;;;;17.34;81.69;101369.47;5035985;28;20458;-69
2021/06/10 03:15:17;;;;;;;2.67;2.33;;;;;;;17.38;81.22;101364.97;5035793;28;20536;-68
2021/06/10 03:17:43;;;;;;;3.80;2.40;;;;;;;17.35;81.66;101364.81;5035889;28;20450;-68
2021/06/10 03:20:10;;;;;;;4.10;1.70;;;;;;;17.36;81.87;101369.97;5035900;28;20443;-68
2021/06/10 03:22:37;;;;;;;3.00;2.47;;;;;;;17.37;81.37;101368.84;5035816;28;20443;-68
2021/06/10 03:25:06;;;;;;;2.83;1.83;;;;;;;17.40;81.36;101376.41;5035765;28;20439;-68
2021/06/10 03:27:33;;;;;;;1.67;1.57;;;;;;;17.34;81.80;101366.75;5035819;28;20439;-68
2021/06/10 03:30:00;;;;;;;2.27;2.07;;;;;;;17.36;82.63;101367.25;5036210;28;20473;-68
2021/06/10 03:32:27;;;;;;;3.50;2.03;;;;;;;17.36;82.84;101378.19;5035360;28;20816;-68
2021/06/10 03:34:54;;;;;;;2.20;2.00;;;;;;;17.38;81.02;101380.59;5035609;28;20560;-68
2021/06/10 03:37:20;;;;;;;2.50;1.93;;;;;;;17.36;79.42;101372.72;5035568;28;20440;-68
2021/06/10 03:39:46;;;;;;;3.03;1.70;;;;;;;17.35;78.54;101373.84;5035484;28;20469;-68
2021/06/10 03:42:13;;;;;;;2.30;1.67;;;;;;;17.32;78.54;101371.75;5035509;28;20438;-68
2021/06/10 03:44:39;;;;;;;2.63;2.07;;;;;;;17.34;79.45;101374.16;5035409;28;20436;-68
2021/06/10 03:47:07;;;;;;;5.40;1.60;;;;;;;17.37;80.97;101368.03;5035290;28;20517;-66
2021/06/10 03:49:33;;;;;;;3.50;1.90;;;;;;;17.37;82.06;101368.03;5035148;28;20439;-66
2021/06/10 03:51:59;;;;;;;2.30;1.90;;;;;;;17.47;82.80;101372.34;5035512;28;20451;-66
2021/06/10 03:54:25;;;;;;;2.20;1.87;;;;;;;17.55;83.13;101371.50;5035449;28;20494;-66
2021/06/10 03:56:51;;;;;;;2.13;1.90;;;;;;;17.63;83.72;101381.63;5034725;28;20474;-66
2021/06/10 03:59:17;;;;;;;3.13;2.50;;;;;;;17.68;84.03;101378.72;5034858;28;20848;-65
2021/06/10 04:01:43;;;;;;;2.50;1.80;;;;;;;17.67;83.97;101368.88;5035114;28;20486;-67
2021/06/10 04:04:10;;;;;;;3.43;1.83;;;;;;;17.77;83.58;101376.75;5035266;28;20889;-67
2021/06/10 04:06:38;;;;;;;3.77;2.47;;;;;;;17.82;82.34;101375.75;5034900;28;20512;-68
2021/06/10 04:09:06;;;;;;;3.87;2.70;;;;;;;17.80;82.14;101380.78;5035064;28;20455;-67
2021/06/10 04:11:32;;;;;;;2.90;2.60;;;;;;;17.82;81.05;101386.72;5034909;28;20448;-67
2021/06/10 04:13:58;;;;;;;3.30;2.03;;;;;;;17.87;79.50;101386.53;5034850;28;20443;-67
2021/06/10 04:16:25;;;;;;;3.80;2.60;;;;;;;17.89;80.73;101390.56;5038668;28;20467;-67
2021/06/10 04:18:52;;;;;;;3.83;2.47;;;;;;;17.91;80.64;101387.47;5034660;28;20450;-67
2021/06/10 04:21:20;;;;;;;3.17;2.20;;;;;;;17.84;80.74;101390.75;5034861;28;20455;-67
2021/06/10 04:23:47;;;;;;;3.53;2.67;;;;;;;17.93;81.12;101392.63;5034597;28;20455;-67
2021/06/10 04:26:14;;;;;;;4.20;2.97;;;;;;;18.03;81.35;101390.31;5034697;28;20532;-67
2021/06/10 04:28:40;;;;;;;4.00;2.00;;;;;;;18.08;81.06;101397.56;5034693;28;20450;-68
2021/06/10 04:31:06;;;;;;;2.37;2.17;;;;;;;18.09;81.13;101393.66;5034898;28;20874;-68
2021/06/10 04:33:31;;;;;;;2.53;2.17;;;;;;;18.03;81.23;101389.53;5034584;28;20454;-68
2021/06/10 04:35:57;;;;;;;3.00;2.70;;;;;;;18.08;81.56;101384.66;5033989;28;20561;-68
2021/06/10 04:38:25;;;;;;;2.70;2.10;;;;;;;18.18;82.21;101382.66;5034402;28;20466;-68
2021/06/10 04:40:51;;;;;;;2.13;1.83;;;;;;;18.27;82.58;101383.38;5034377;28;20505;-68
2021/06/10 04:43:17;;;;;;;3.30;2.50;;;;;;;18.33;82.18;101382.88;5034212;28;20443;-68
2021/06/10 04:45:43;;;;;;;3.53;2.60;;;;;;;18.35;81.54;101380.59;5034137;28;20459;-69
2021/06/10 04:48:09;;;;;;;2.70;2.10;;;;;;;18.48;81.85;101377.91;5033818;28;20809;-68
2021/06/10 04:50:36;;;;;;;4.47;3.27;;;;;;;18.60;82.08;101381.53;5033855;28;20964;-68
2021/06/10 04:53:03;;;;;;;3.80;3.00;;;;;;;18.63;81.55;101389.06;5034106;28;20443;-68
2021/06/10 04:55:30;;;;;;;3.67;2.50;;;;;;;18.63;81.17;101380.84;5034051;28;20494;-70
2021/06/10 04:57:56;;;;;;;2.60;2.40;;;;;;;18.66;80.51;101395.84;5033983;28;20447;-68
2021/06/10 05:00:23;;;;;;;3.60;2.40;;;;;;;18.78;80.66;101395.94;5033987;28;20604;-66
2021/06/10 05:02:49;;;;;;;4.60;2.57;;;;;;;18.92;80.21;101386.59;5034095;28;20461;-68
2021/06/10 05:05:15;;;;;;;4.20;3.10;;;;;;;19.02;80.16;101386.97;5033548;28;21007;-69
2021/06/10 05:07:41;;;;;;;2.63;2.33;;;;;;;19.09;79.89;101386.44;5033945;28;20447;-70
2021/06/10 05:10:08;;;;;;;4.30;3.70;;;;;;;19.11;80.76;101384.13;5033259;28;20940;-69
2021/06/10 05:12:36;;;;;;;3.90;3.10;;;;;;;19.08;80.36;101382.88;5033849;28;20447;-70
2021/06/10 05:15:02;;;;;;;3.67;2.73;;;;;;;19.05;79.68;101386.31;5033890;28;20587;-70
2021/06/10 05:17:29;;;;;;;2.50;2.20;;;;;;;18.96;80.03;101382.84;5033799;28;20446;-70
2021/06/10 05:19:55;;;;;;;4.13;2.93;;;;;;;18.97;80.95;101386.38;5033744;28;20436;-70
2021/06/10 05:22:21;;;;;;;3.70;2.60;;;;;;;19.00;82.33;101380.22;5033813;28;20446;-70
2021/06/10 05:24:47;;;;;;;3.03;2.43;;;;;;;19.02;82.84;101386.16;5033653;28;20435;-70
2021/06/10 05:27:13;;;;;;;3.13;2.57;;;;;;;19.06;81.45;101381.59;5033588;28;20467;-70
2021/06/10 05:29:40;;;;;;;2.90;2.37;;;;;;;19.08;81.36;101391.13;5033519;28;20443;-70
2021/06/10 05:32:07;;;;;;;4.77;3.03;;;;;;;19.14;81.36;101386.22;5033572;28;20553;-70
2021/06/10 05:34:33;;;;;;;3.20;2.40;;;;;;;19.30;81.69;101389.09;5033398;28;20487;-71
2021/06/10 05:36:59;;;;;;;4.00;2.97;;;;;;;19.44;81.44;101389.59;5033084;28;21000;-72
2021/06/10 05:39:25;;;;;;;3.97;2.60;;;;;;;19.57;81.15;101384.94;5033467;28;20451;-69
2021/06/10 05:41:53;;;;;;;4.17;2.57;;;;;;;19.65;82.33;101382.06;5033412;28;20455;-69
2021/06/10 05:44:19;;;;;;;8.40;3.17;;;;;;;19.74;82.99;101386.66;5033445;28;20454;-69
2021/06/10 05:46:48;;;;;;;4.50;3.30;;;;;;;19.73;83.30;101388.59;5033473;28;20455;-69
2021/06/10 05:49:14;;;;;;;3.30;2.80;;;;;;;19.76;83.93;101389.88;5033435;28;20439;-68
2021/06/10 05:51:40;;;;;;;3.07;2.40;;;;;;;19.80;83.19;101394.34;5033276;28;20522;-69
2021/06/10 05:54:06;;;;;;;3.10;2.67;;;;;;;19.85;82.30;101396.88;5033228;28;20940;-68
2021/06/10 05:56:32;;;;;;;4.50;3.17;;;;;;;19.97;80.79;101387.03;5033029;28;20992;-69
2021/06/10 05:58:58;;;;;;;6.57;2.67;;;;;;;20.06;80.59;101402.25;5032934;28;20823;-68
2021/06/10 06:01:24;;;;;;;2.53;2.30;;;;;;;20.13;79.42;101402.44;5033678;28;20475;-68
2021/06/10 06:03:51;;;;;;;4.53;3.13;;;;;;;20.23;79.31;101400.38;5032854;28;21062;-68
2021/06/10 06:06:19;;;;;;;3.70;2.87;;;;;;;20.31;77.19;101400.25;5032745;28;20992;-69
2021/06/10 06:08:45;;;;;;;3.03;2.70;;;;;;;20.40;76.02;101397.34;5033114;28;20455;-69
2021/06/10 06:11:11;;;;;;;3.30;2.40;;;;;;;20.47;76.01;101399.53;5033204;28;20435;-68
2021/06/10 06:13:45;;;;;;;4.00;3.00;;;;;;;20.51;75.72;101393.00;5033037;28;21015;-68
2021/06/10 06:16:13;;;;;;;3.20;2.63;;;;;;;20.58;76.19;101390.44;5032992;28;20508;-67
2021/06/10 06:18:40;;;;;;;2.50;2.17;;;;;;;20.63;76.19;101397.69;5033194;28;20449;-68
2021/06/10 06:21:07;;;;;;;1.80;1.63;;;;;;;20.72;76.66;101398.34;5035811;28;20449;-68
2021/06/10 06:23:33;;;;;;;2.83;2.23;;;;;;;20.80;77.68;101396.56;5049396;28;20461;-68
2021/06/10 06:26:00;;;;;;;2.40;2.13;;;;;;;20.85;78.57;101404.56;5056509;28;20450;-67
2021/06/10 06:28:26;;;;;;;3.47;2.50;;;;;;;20.90;77.57;101413.41;5056832;28;20827;-68
2021/06/10 06:30:52;;;;;;;4.17;2.30;;;;;;;20.95;76.82;101415.09;5056793;28;20446;-69
2021/06/10 06:33:18;;;;;;;4.13;2.53;;;;;;;21.04;75.99;101414.97;5056970;28;20434;-68
2021/06/10 06:35:45;;;;;;;2.93;2.30;;;;;;;21.09;73.94;101420.22;5038311;28;21059;-69
2021/06/10 06:38:13;;;;;;;4.07;2.60;;;;;;;21.13;73.70;101416.41;5056720;28;20442;-68
2021/06/10 06:40:39;;;;;;;4.60;2.93;;;;;;;21.25;73.37;101421.06;5056583;28;20449;-68
2021/06/10 06:43:06;;;;;;;3.57;3.10;;;;;;;21.35;73.88;101417.78;5056576;28;20849;-67
2021/06/10 06:45:33;;;;;;;3.43;2.43;;;;;;;21.47;75.94;101413.34;5056489;28;20470;-69
2021/06/10 06:47:59;;;;;;;4.53;2.60;;;;;;;21.55;73.38;101415.13;5056709;28;20445;-69
2021/06/10 06:50:25;;;;;;;3.63;3.03;;;;;;;21.73;74.38;101424.66;5056489;28;20446;-68
2021/06/10 06:52:51;;;;;;;3.37;2.43;;;;;;;21.87;74.03;101422.25;5056445;28;20491;-68
2021/06/10 06:55:19;;;;;;;3.53;2.10;;;;;;;21.97;73.33;101425.63;5056259;28;20486;-68
2021/06/10 06:57:45;;;;;;;3.57;3.23;;;;;;;22.03;73.55;101426.94;5056268;28;20456;-68
2021/06/10 07:00:11;;;;;;;2.90;2.40;;;;;;;22.08;73.16;101429.41;5056422;28;20521;-67
2021/06/10 07:02:37;;;;;;;3.20;2.57;;;;;;;22.06;72.54;101420.72;5055933;28;20825;-68
2021/06/10 07:05:05;;;;;;;5.07;3.00;;;;;;;22.13;71.06;101423.66;5055894;28;20445;-68
2021/06/10 07:07:30;;;;;;;5.00;2.70;;;;;;;22.18;69.80;101423.41;5056207;28;20438;-71
2021/06/10 07:09:57;;;;;;;6.13;2.20;;;;;;;22.34;69.80;101428.88;5055858;28;20519;-67
2021/06/10 07:12:24;;;;;;;2.03;1.83;;;;;;;22.41;70.38;101432.59;5055797;28;21048;-67
2021/06/10 07:14:50;;;;;;;2.63;2.33;;;;;;;22.50;69.72;101442.63;5056028;28;20485;-68
2021/06/10 07:17:17;;;;;;;3.70;2.40;;;;;;;22.47;67.94;101441.38;5055761;28;21009;-69
2021/06/10 07:19:43;;;;;;;4.20;3.00;;;;;;;22.56;66.21;101441.19;5056060;28;20438;-68
2021/06/10 07:22:09;;;;;;;3.50;2.40;;;;;;;22.60;68.20;101447.59;5055936;28;20446;-68
2021/06/10 07:24:35;;;;;;;2.63;1.80;;;;;;;22.74;65.36;101447.06;5055764;28;20438;-69
2021/06/10 07:27:01;;;;;;;4.70;2.50;;;;;;;22.81;63.02;101438.94;5056281;28;21029;-68
2021/06/10 07:29:28;;;;;;;1.83;1.73;;;;;;;22.87;63.28;101443.81;5055815;28;20461;-68
2021/06/10 07:31:54;;;;;;;2.97;2.43;;;;;;;23.01;64.20;101448.03;5055094;28;20454;-69
2021/06/10 07:34:20;;;;;;;3.67;1.97;;;;;;;22.99;63.21;101453.16;5055549;28;20450;-68
2021/06/10 07:36:46;;;;;;;3.47;2.40;;;;;;;23.04;62.09;101447.31;5055241;28;20551;-67
2021/06/10 07:39:12;;;;;;;3.50;2.37;;;;;;;23.08;63.05;101449.00;5055282;28;20438;-67
2021/06/10 07:41:38;;;;;;;2.87;2.23;;;;;;;23.08;67.00;101457.28;5055458;28;20442;-70
2021/06/10 07:44:05;;;;;;;15.13;2.60;;;;;;;23.18;64.82;101453.13;5057351;28;20465;-70
2021/06/10 07:46:33;;;;;;;3.00;2.70;;;;;;;23.21;62.73;101455.16;5066605;28;20520;-70
2021/06/10 07:48:59;;;;;;;4.93;2.43;;;;;;;23.34;64.73;101462.13;5055908;28;20951;-68
2021/06/10 07:51:25;;;;;;;2.60;2.13;;;;;;;23.36;61.93;101464.50;5055588;28;20620;-69
2021/06/10 07:53:51;;;;;;;3.63;3.20;;;;;;;23.35;63.86;101465.69;5055360;28;20977;-68
2021/06/10 07:56:17;;;;;;;6.90;2.97;;;;;;;23.25;59.98;101461.56;5055177;28;20490;-68
2021/06/10 07:58:43;;;;;;;3.07;2.63;;;;;;;23.24;59.47;101468.25;5054953;28;20568;-69
2021/06/10 08:01:09;;;;;;;2.13;1.93;;;;;;;23.27;59.43;101458.44;5055206;28;20446;-70
2021/06/10 08:03:37;;;;;;;4.03;2.60;;;;;;;23.31;60.55;101457.31;5055321;28;20466;-70
2021/06/10 08:06:03;;;;;;;3.83;2.37;;;;;;;23.38;63.63;101465.75;5054779;28;20881;-69
2021/06/10 08:08:29;;;;;;;2.57;2.37;;;;;;;23.33;60.64;101455.00;5055085;28;20441;-70
2021/06/10 08:10:56;;;;;;;3.27;2.60;;;;;;;23.32;58.12;101461.69;5055126;28;20466;-70
2021/06/10 08:13:24;;;;;;;3.67;2.13;;;;;;;23.45;59.56;101458.75;5054992;28;20442;-69
2021/06/10 08:15:51;;;;;;;3.60;2.87;;;;;;;23.47;59.48;101459.19;5054755;28;20608;-70
2021/06/10 08:18:17;;;;;;;2.90;2.30;;;;;;;23.52;57.72;101456.13;5054863;28;20442;-69
2021/06/10 08:20:44;;;;;;;2.80;2.20;;;;;;;23.56;60.46;101460.56;5054567;28;20947;-70
2021/06/10 08:23:10;;;;;;;3.90;2.87;;;;;;;23.63;56.08;101459.88;5054476;28;21013;-69
2021/06/10 08:25:42;;;;;;;2.70;2.10;;;;;;;23.82;55.86;101457.06;5054726;28;20835;-70
2021/06/10 08:28:10;;;;;;;2.70;2.47;;;;;;;23.94;56.97;101469.09;5054702;28;20455;-70
2021/06/10 08:30:36;;;;;;;2.83;2.50;;;;;;;24.09;57.54;101462.63;5054566;28;20450;-69
2021/06/10 08:33:02;;;;;;;2.87;2.47;;;;;;;24.07;57.86;101465.75;5054541;28;20438;-69
2021/06/10 08:37:58;;;;;;;4.87;3.13;;;;;;;24.15;54.08;101475.78;5012899;28;20461;-73
2021/06/10 08:40:25;;;;;;;2.90;2.40;;;;;;;24.22;54.69;101464.03;5014132;28;21020;-73
2021/06/10 08:42:51;;;;;;;3.30;2.53;;;;;;;24.31;57.29;101470.09;5014249;28;20448;-73
2021/06/10 08:45:19;;;;;;;3.53;3.07;;;;;;;24.40;55.42;101462.34;5013719;28;20440;-73
2021/06/10 08:47:47;;;;;;;4.37;3.40;;;;;;;24.52;53.69;101461.31;5013983;28;20452;-72
2021/06/10 08:50:18;;;;;;;2.93;2.30;;;;;;;24.59;53.08;101457.84;5014246;28;20444;-71
2021/06/10 08:52:44;;;;;;;3.80;2.40;;;;;;;24.64;54.48;101463.84;5014466;28;20799;-73
2021/06/10 08:55:13;;;;;;;3.20;2.90;;;;;;;24.69;54.92;101457.19;5014272;28;20484;-72
2021/06/10 08:57:39;;;;;;;3.47;2.87;;;;;;;24.70;55.69;101464.31;5014166;28;20490;-73
2021/06/10 09:00:08;;;;;;;2.50;2.30;;;;;;;24.65;55.91;101470.19;5014383;28;20455;-73
2021/06/10 09:02:35;;;;;;;3.47;2.70;;;;;;;24.66;54.51;101460.72;5014301;28;20460;-73
2021/06/10 09:05:02;;;;;;;3.27;2.50;;;;;;;24.75;55.97;101469.53;5008398;28;20457;-72
2021/06/10 09:07:35;;;;;;;2.43;2.10;;;;;;;24.81;55.21;101467.22;4994228;28;20977;-72
2021/06/10 09:10:01;;;;;;;5.27;3.20;;;;;;;24.88;53.98;101464.53;4994339;28;21130;-72
2021/06/10 09:12:28;;;;;;;3.60;3.00;;;;;;;24.98;54.32;101463.88;4994493;28;20499;-73
2021/06/10 09:14:57;;;;;;;2.37;1.77;;;;;;;25.13;54.93;101467.63;4994303;28;20535;-73
2021/06/10 09:17:27;;;;;;;4.50;3.10;;;;;;;25.21;51.22;101480.41;4994440;28;20465;-74
2021/06/10 09:19:53;;;;;;;3.63;3.30;;;;;;;25.27;53.06;101467.78;4998724;28;20459;-74
2021/06/10 09:22:19;;;;;;;5.00;3.47;;;;;;;25.32;52.35;101472.19;5013967;28;20451;-73
2021/06/10 09:24:45;;;;;;;3.63;2.40;;;;;;;25.35;53.25;101475.00;5014034;28;20502;-73
2021/06/10 09:27:13;;;;;;;4.63;3.43;;;;;;;25.47;53.60;101470.38;5013712;28;20472;-72
2021/06/10 09:29:44;;;;;;;4.93;3.40;;;;;;;25.52;51.11;101467.25;4999228;28;20962;-72
2021/06/10 09:32:16;;;;;;;3.40;3.03;;;;;;;25.61;51.09;101464.97;4994302;28;20448;-73
2021/06/10 09:34:44;;;;;;;3.73;2.80;;;;;;;25.64;52.44;101462.22;4994217;28;20472;-73
2021/06/10 09:37:12;;;;;;;2.63;2.23;;;;;;;25.84;52.35;101468.34;4993672;28;20904;-73
2021/06/10 09:39:49;;;;;;;3.07;2.60;;;;;;;25.94;51.05;101463.25;4994083;28;20445;-74
2021/06/10 09:42:15;;;;;;;3.73;3.10;;;;;;;26.12;48.76;101461.44;4993761;28;20947;-73
2021/06/10 09:44:45;;;;;;;2.97;2.67;;;;;;;26.33;50.04;101464.34;4993683;28;21073;-73
2021/06/10 09:47:12;;;;;;;2.60;2.40;;;;;;;26.39;50.28;101460.03;5000565;28;21103;-73
2021/06/10 09:49:38;;;;;;;4.07;2.80;;;;;;;26.54;48.23;101460.91;4994074;28;20469;-73
2021/06/10 09:52:05;;;;;;;2.60;2.40;;;;;;;26.63;48.49;101460.56;4994002;28;20437;-73
2021/06/10 09:54:43;;;;;;;3.50;3.00;;;;;;;26.49;46.41;101452.16;4993487;28;20834;-74
2021/06/10 09:57:11;;;;;;;4.20;3.67;;;;;;;26.12;47.69;101462.25;4993536;28;20823;-74
2021/06/10 09:59:50;;;;;;;3.20;2.87;;;;;;;26.13;48.50;101463.81;4993873;28;20437;-73
2021/06/10 10:02:22;;;;;;;3.00;2.70;;;;;;;26.27;46.23;101452.00;4993818;28;20433;-73
2021/06/10 10:04:59;;;;;;;4.87;3.73;;;;;;;26.31;46.26;101457.59;4993815;28;20429;-73
2021/06/10 10:07:26;;;;;;;4.47;3.40;;;;;;;26.34;45.98;101467.91;4993665;28;20483;-71
2021/06/10 10:09:54;;;;;;;3.97;3.33;;;;;;;26.34;45.16;101462.34;4993734;28;20445;-74
2021/06/10 10:12:21;;;;;;;3.17;2.63;;;;;;;26.33;44.84;101467.13;4993764;28;20504;-74
2021/06/10 10:14:49;;;;;;;4.33;2.80;;;;;;;26.36;44.93;101462.78;4993337;28;20946;-73
2021/06/10 10:17:15;;;;;;;3.60;3.00;;;;;;;26.19;44.76;101461.47;4993637;28;20477;-72
2021/06/10 10:19:41;;;;;;;3.40;2.83;;;;;;;26.18;44.84;101465.44;4993163;28;20954;-72
2021/06/10 10:22:11;;;;;;;5.80;3.13;;;;;;;26.21;46.90;101458.31;4993646;28;20440;-73
2021/06/10 10:24:37;;;;;;;2.70;2.50;;;;;;;26.25;46.71;101465.47;4993598;28;20476;-71
2021/06/10 10:27:04;;;;;;;3.20;2.57;;;;;;;26.27;45.84;101465.91;4993516;28;20460;-73
2021/06/10 10:29:30;;;;;;;4.10;2.80;;;;;;;26.45;45.88;101468.81;4993189;28;20809;-70
2021/06/10 10:31:58;;;;;;;2.47;2.07;;;;;;;26.60;46.33;101466.91;4993514;28;20441;-72
2021/06/10 10:34:25;;;;;;;2.17;1.97;;;;;;;26.73;47.88;101461.81;4993391;28;20483;-73
2021/06/10 10:36:52;;;;;;;4.17;2.60;;;;;;;26.74;45.56;101460.59;4992848;28;21002;-72
2021/06/10 10:39:29;;;;;;;3.00;2.60;;;;;;;26.69;43.89;101463.75;4993387;28;20456;-73
2021/06/10 10:41:56;;;;;;;3.87;2.77;;;;;;;26.60;44.49;101464.13;4993454;28;20436;-73
2021/06/10 10:44:26;;;;;;;2.27;2.07;;;;;;;26.82;44.37;101465.00;4993152;28;20848;-71
2021/06/10 10:47:08;;;;;;;3.30;1.83;;;;;;;26.93;43.88;101457.53;4993382;28;20473;-72
2021/06/10 10:49:42;;;;;;;2.60;2.40;;;;;;;26.88;44.67;101461.47;4993450;28;20468;-73
2021/06/10 10:52:30;;;;;;;3.00;2.23;;;;;;;27.06;45.42;101452.41;4993347;28;20457;-72
2021/06/10 10:55:14;;;;;;;3.00;1.80;;;;;;;26.97;45.74;101449.19;4993336;28;20579;-72
2021/06/10 10:57:41;;;;;;;1.87;1.73;;;;;;;26.80;46.19;101461.84;4993318;28;20539;-72
2021/06/10 11:00:09;;;;;;;2.10;1.90;;;;;;;26.78;45.09;101459.44;4993360;28;20460;-72
2021/06/10 11:02:40;;;;;;;2.40;2.20;;;;;;;26.88;44.01;101444.78;4993175;28;20520;-72
2021/06/10 11:05:09;;;;;;;2.13;1.83;;;;;;;26.97;41.12;101449.19;4993370;28;20433;-72
2021/06/10 11:07:54;;;;;;;3.40;2.07;;;;;;;27.12;43.13;101456.41;4994683;28;20469;-71
2021/06/10 11:11:00;;;;;;;3.10;2.40;;;;;;;26.99;41.71;101449.59;4996418;28;20945;-71
2021/06/10 11:13:27;;;;;;;3.37;2.90;;;;;;;27.06;41.52;101453.19;4996755;28;20439;-71
2021/06/10 11:15:56;;;;;;;2.50;2.30;;;;;;;27.36;41.82;101441.75;4996287;28;21005;-71
2021/06/10 11:18:52;;;;;;;2.63;2.23;;;;;;;28.08;41.06;101444.56;4996618;28;20444;-72
2021/06/10 11:22:01;;;;;;;2.20;2.00;;;;;;;28.87;39.16;101440.34;4996672;28;20430;-72
2021/06/10 11:24:27;;;;;;;2.50;2.30;;;;;;;29.27;39.36;101440.94;4996533;28;20432;-72
2021/06/10 11:27:02;;;;;;;2.40;2.20;;;;;;;29.53;37.54;101431.19;4996085;28;20970;-72
2021/06/10 11:29:29;;;;;;;2.20;1.97;;;;;;;30.07;36.93;101428.72;4996418;28;20448;-73